Terminal Aerodrome Forecast
Issued by NWS Charleston, WV

Home | Current Version | Previous Version | Text Only | Print | Product List | Glossary On
Versions: 1 2 3 4 5 6 7 8 9 10 11 12 13 14 15 16 17 18 19 20 21 22 23 24 25
000
FTUS41 KRLX 232300
TAFPKB
TAF
KPKB 232331Z 2400/2424 35004KT P6SM SCT250
     FM240300 01006KT P6SM OVC015
     FM240600 01005KT P6SM OVC040
     FM241500 01007KT P6SM SCT030
     FM241700 01007KT P6SM SCT035
     FM242200 01006KT P6SM SCT050=

USA.gov is the U.S. government's official web portal to all federal, state and local government web resources and services.